createdAt,value
2019-05-29T00:01:39.044Z,98459.84
2019-05-29T00:04:08.117Z,98463.30
2019-05-29T00:06:36.412Z,98467.95
2019-05-29T00:09:06.347Z,98463.53
2019-05-29T00:11:34.534Z,98469.06
2019-05-29T00:14:17.865Z,98467.02
2019-05-29T00:16:32.655Z,98473.23
2019-05-29T00:19:00.859Z,98479.89
2019-05-29T00:21:29.048Z,98479.91
2019-05-29T00:23:57.509Z,98487.95
2019-05-29T00:26:26.301Z,98488.88
2019-05-29T00:28:54.782Z,98489.25
2019-05-29T00:31:22.983Z,98483.53
2019-05-29T00:33:51.640Z,98491.09
2019-05-29T00:36:20.110Z,98502.78
2019-05-29T00:38:48.301Z,98499.32
2019-05-29T00:41:17.144Z,98499.70
2019-05-29T00:43:45.939Z,98503.53
2019-05-29T00:46:15.564Z,98503.80
2019-05-29T00:48:43.771Z,98515.08
2019-05-29T00:51:12.964Z,98515.06
2019-05-29T00:53:41.241Z,98517.53
2019-05-29T00:56:10.436Z,98524.70
2019-05-29T00:58:41.436Z,98529.41
2019-05-29T01:01:11.435Z,98526.83
2019-05-29T01:03:39.578Z,98535.55
2019-05-29T01:06:07.780Z,98545.11
2019-05-29T01:08:36.051Z,98550.84
2019-05-29T01:11:04.288Z,98547.13
2019-05-29T01:13:32.440Z,98548.76
2019-05-29T01:16:00.640Z,98551.05
2019-05-29T01:18:28.847Z,98550.50
2019-05-29T01:20:57.028Z,98555.22
2019-05-29T01:23:25.218Z,98558.23
2019-05-29T01:25:53.438Z,98565.14
2019-05-29T01:28:23.113Z,98567.44
2019-05-29T01:30:51.879Z,98571.17
2019-05-29T01:33:23.001Z,98568.67
2019-05-29T01:35:49.960Z,98573.86
2019-05-29T01:38:19.272Z,98575.13
2019-05-29T01:40:47.593Z,98583.70
2019-05-29T01:43:15.784Z,98577.71
2019-05-29T01:45:43.979Z,98574.82
2019-05-29T01:48:12.740Z,98581.25
2019-05-29T01:50:40.946Z,98582.96
2019-05-29T01:53:09.157Z,98584.04
2019-05-29T01:55:37.354Z,98585.23
2019-05-29T01:58:05.553Z,98584.70
2019-05-29T02:00:33.751Z,98590.77
2019-05-29T02:03:02.598Z,98585.27
2019-05-29T02:05:30.806Z,98584.98
2019-05-29T02:07:58.988Z,98587.48
2019-05-29T02:10:27.184Z,98583.48
2019-05-29T02:12:55.444Z,98591.08
2019-05-29T02:15:31.724Z,98594.61
2019-05-29T02:17:53.554Z,98596.95
2019-05-29T02:20:23.186Z,98602.00
2019-05-29T02:22:51.318Z,98597.13
2019-05-29T02:25:22.343Z,98609.45
2019-05-29T02:27:50.632Z,98605.73
2019-05-29T02:30:21.076Z,98610.28
2019-05-29T02:32:48.776Z,98612.49
2019-05-29T02:35:17.989Z,98620.06
2019-05-29T02:37:46.757Z,98624.28
2019-05-29T02:40:15.390Z,98622.59
2019-05-29T02:42:43.593Z,98631.70
2019-05-29T02:45:11.782Z,98630.02
2019-05-29T02:47:40.054Z,98628.97
2019-05-29T02:50:08.518Z,98632.69
2019-05-29T02:52:36.735Z,98631.84
2019-05-29T02:55:07.660Z,98638.27
2019-05-29T02:57:35.948Z,98640.12
2019-05-29T03:00:06.052Z,98640.79
2019-05-29T03:02:34.242Z,98655.29
2019-05-29T03:05:02.438Z,98652.91
2019-05-29T03:07:32.253Z,98655.23
2019-05-29T03:10:00.554Z,98655.60
2019-05-29T03:12:29.442Z,98660.01
2019-05-29T03:14:58.123Z,98659.66
2019-05-29T03:17:27.921Z,98664.03
2019-05-29T03:19:56.255Z,98669.09
2019-05-29T03:22:26.122Z,98674.13
2019-05-29T03:24:54.746Z,98677.17
2019-05-29T03:27:22.936Z,98674.14
2019-05-29T03:29:51.898Z,98674.14
2019-05-29T03:32:20.670Z,98679.53
2019-05-29T03:34:48.878Z,98683.55
2019-05-29T03:37:17.829Z,98688.66
2019-05-29T03:39:46.016Z,98692.50
2019-05-29T03:42:14.210Z,98693.36
2019-05-29T03:44:42.428Z,98690.16
2019-05-29T03:47:11.393Z,98699.92
2019-05-29T03:49:39.872Z,98703.13
2019-05-29T03:52:08.240Z,98706.52
2019-05-29T03:54:36.431Z,98706.84
2019-05-29T03:57:05.012Z,98707.84
2019-05-29T03:59:35.115Z,98717.29
2019-05-29T04:02:03.130Z,98718.95
2019-05-29T04:04:32.845Z,98713.19
2019-05-29T04:07:02.485Z,98721.30
2019-05-29T04:09:31.407Z,98727.00
2019-05-29T04:12:00.277Z,98725.12
2019-05-29T04:14:29.751Z,98723.94
2019-05-29T04:17:00.295Z,98732.04
2019-05-29T04:19:30.041Z,98740.94
2019-05-29T04:21:59.132Z,98743.75
2019-05-29T04:24:28.024Z,98744.03
2019-05-29T04:26:56.666Z,98746.70
2019-05-29T04:29:24.859Z,98747.33
2019-05-29T04:31:53.619Z,98753.36
2019-05-29T04:34:21.817Z,98750.41
2019-05-29T04:36:50.582Z,98758.55
2019-05-29T04:39:18.774Z,98756.41
2019-05-29T04:41:46.971Z,98768.29
2019-05-29T04:44:15.938Z,98780.20
2019-05-29T04:46:45.706Z,98779.86
2019-05-29T04:49:13.897Z,98779.14
2019-05-29T04:51:42.093Z,98784.58
2019-05-29T04:54:10.793Z,98787.58
2019-05-29T04:56:39.200Z,98794.19
2019-05-29T04:59:09.002Z,98794.70
2019-05-29T05:01:37.780Z,98796.52
2019-05-29T05:04:06.061Z,98808.78
2019-05-29T05:06:35.285Z,98806.12
2019-05-29T05:09:05.066Z,98809.12
2019-05-29T05:11:33.400Z,98819.86
2019-05-29T05:14:01.969Z,98817.86
2019-05-29T05:16:30.195Z,98816.22
2019-05-29T05:18:58.398Z,98820.02
2019-05-29T05:21:26.591Z,98819.69
2019-05-29T05:23:56.953Z,98820.65
2019-05-29T05:26:25.253Z,98824.47
2019-05-29T05:28:54.089Z,98820.97
2019-05-29T05:31:22.269Z,98824.09
2019-05-29T05:33:50.506Z,98833.25
2019-05-29T05:36:18.695Z,98841.09
2019-05-29T05:38:47.670Z,98834.18
2019-05-29T05:41:15.855Z,98839.72
2019-05-29T05:43:44.820Z,98849.21
2019-05-29T05:46:13.005Z,98847.23
2019-05-29T05:48:41.658Z,98850.63
2019-05-29T05:51:09.971Z,98850.92
2019-05-29T05:53:38.171Z,98853.73
2019-05-29T05:56:06.366Z,98863.38
2019-05-29T05:58:35.690Z,98863.23
2019-05-29T06:01:04.056Z,98868.45
2019-05-29T06:03:32.255Z,98872.36
2019-05-29T06:06:00.444Z,98871.66
2019-05-29T06:08:28.649Z,98863.77
2019-05-29T06:10:56.910Z,98874.42
2019-05-29T06:13:25.112Z,98873.72
2019-05-29T06:15:53.314Z,98878.82
2019-05-29T06:18:23.083Z,98879.05
2019-05-29T06:20:51.849Z,98883.73
2019-05-29T06:23:20.055Z,98879.55
2019-05-29T06:25:48.251Z,98882.39
2019-05-29T06:28:17.215Z,98886.80
2019-05-29T06:30:45.428Z,98889.40
2019-05-29T06:33:13.617Z,98894.57
2019-05-29T06:35:41.817Z,98892.98
2019-05-29T06:38:10.016Z,98890.74
2019-05-29T06:40:43.911Z,98891.03
2019-05-29T06:43:23.854Z,98901.47
2019-05-29T06:45:52.378Z,98905.19
2019-05-29T06:48:41.722Z,98903.66
2019-05-29T06:50:57.411Z,98905.94
2019-05-29T06:53:24.995Z,98914.44
2019-05-29T06:55:54.925Z,98907.41
2019-05-29T06:58:23.183Z,98906.86
2019-05-29T07:00:51.376Z,98908.83
2019-05-29T07:03:19.587Z,98906.97
2019-05-29T07:05:52.322Z,98919.80
2019-05-29T07:08:24.149Z,98915.05
2019-05-29T07:10:48.508Z,98921.44
2019-05-29T07:13:16.796Z,98929.58
2019-05-29T07:15:45.732Z,98924.45
2019-05-29T07:18:15.017Z,98931.33
2019-05-29T07:20:43.289Z,98936.80
2019-05-29T07:23:11.479Z,98935.07
2019-05-29T07:25:40.820Z,98934.95
2019-05-29T07:28:09.932Z,98946.53
2019-05-29T07:30:39.185Z,98956.64
2019-05-29T07:33:07.582Z,98957.70
2019-05-29T07:35:37.132Z,98960.33
2019-05-29T07:38:05.448Z,98961.23
2019-05-29T07:40:35.992Z,98962.31
2019-05-29T07:43:04.320Z,98959.38
2019-05-29T07:45:32.522Z,98958.31
2019-05-29T07:48:00.714Z,98966.31
2019-05-29T07:50:28.917Z,98967.34
2019-05-29T07:52:57.138Z,98972.95
2019-05-29T07:55:26.152Z,98976.62
2019-05-29T07:57:54.374Z,98977.60
2019-05-29T08:00:22.559Z,98983.28
2019-05-29T08:02:50.748Z,98983.30
2019-05-29T08:05:20.293Z,98988.65
2019-05-29T08:07:49.682Z,98991.38
2019-05-29T08:10:20.970Z,98997.06
2019-05-29T08:12:54.266Z,98997.06
2019-05-29T08:15:19.603Z,98992.44
2019-05-29T08:17:48.461Z,98991.52
2019-05-29T08:20:16.664Z,98991.29
2019-05-29T08:22:46.439Z,98987.46
2019-05-29T08:25:14.741Z,98992.41
2019-05-29T08:27:42.931Z,98995.19
2019-05-29T08:30:11.210Z,98993.83
2019-05-29T08:32:40.819Z,98998.53
2019-05-29T08:35:09.148Z,99004.23
2019-05-29T08:37:37.346Z,99007.57
2019-05-29T08:40:07.167Z,99002.73
2019-05-29T08:42:35.358Z,99002.51
2019-05-29T08:45:07.775Z,99002.35
2019-05-29T08:47:35.956Z,99004.23
2019-05-29T08:50:18.298Z,99006.41
2019-05-29T08:52:37.526Z,99003.28
2019-05-29T08:55:05.907Z,98998.22
2019-05-29T08:57:34.101Z,98995.83
2019-05-29T09:00:02.471Z,99008.33
2019-05-29T09:02:30.665Z,99007.57
2019-05-29T09:04:58.875Z,99012.83
2019-05-29T09:07:27.070Z,99018.09
2019-05-29T09:09:55.750Z,99023.20
2019-05-29T09:12:24.743Z,99020.60
2019-05-29T09:14:52.933Z,99017.52
2019-05-29T09:17:22.147Z,99018.35
2019-05-29T09:19:50.387Z,99017.60
2019-05-29T09:22:19.182Z,99025.98
2019-05-29T09:24:47.357Z,99032.03
2019-05-29T09:27:17.146Z,99023.77
2019-05-29T09:29:45.339Z,99030.00
2019-05-29T09:32:15.075Z,99028.83
2019-05-29T09:34:47.325Z,99025.70
2019-05-29T09:37:14.192Z,99032.16
2019-05-29T09:39:43.298Z,99038.59
2019-05-29T09:42:11.497Z,99036.33
2019-05-29T09:44:40.253Z,99034.28
2019-05-29T09:47:08.568Z,99036.48
2019-05-29T09:49:36.763Z,99043.89
2019-05-29T09:52:05.133Z,99053.48
2019-05-29T09:54:33.481Z,99052.40
2019-05-29T09:57:02.838Z,99049.66
2019-05-29T09:59:31.351Z,99054.23
2019-05-29T10:02:03.492Z,99057.95
2019-05-29T10:04:33.030Z,99064.34
2019-05-29T10:07:02.410Z,99061.75
2019-05-29T10:09:32.042Z,99059.28
2019-05-29T10:12:04.107Z,99057.55
2019-05-29T10:14:30.154Z,99064.25
2019-05-29T10:17:02.089Z,99053.73
2019-05-29T10:19:28.283Z,99058.00
2019-05-29T10:21:58.318Z,99057.11
2019-05-29T10:24:27.084Z,99057.11
2019-05-29T10:26:55.542Z,99059.66
2019-05-29T10:29:25.175Z,99053.39
2019-05-29T10:31:53.631Z,99053.36
2019-05-29T10:34:21.852Z,99061.53
2019-05-29T10:36:53.019Z,99062.15
2019-05-29T10:39:19.978Z,99066.93
2019-05-29T10:41:48.862Z,99057.72
2019-05-29T10:44:17.159Z,99066.25
2019-05-29T10:46:48.384Z,99061.33
2019-05-29T10:49:16.152Z,99067.26
2019-05-29T10:52:00.267Z,99067.84
2019-05-29T10:54:14.276Z,99064.16
2019-05-29T10:56:42.479Z,99063.03
2019-05-29T10:59:11.515Z,99066.05
2019-05-29T11:01:39.722Z,99066.09
2019-05-29T11:04:08.684Z,99065.53
2019-05-29T11:06:40.534Z,99066.21
2019-05-29T11:09:07.173Z,99064.83
2019-05-29T11:11:35.373Z,99062.72
2019-05-29T11:14:03.833Z,99066.34
2019-05-29T11:16:32.126Z,99061.69
2019-05-29T11:19:00.302Z,99059.70
2019-05-29T11:21:28.634Z,99055.44
2019-05-29T11:23:58.205Z,99064.58
2019-05-29T11:26:27.135Z,99072.09
2019-05-29T11:28:56.530Z,99064.25
2019-05-29T11:31:24.910Z,99065.80
2019-05-29T11:33:53.239Z,99080.50
2019-05-29T11:36:21.380Z,99073.91
2019-05-29T11:38:50.500Z,99075.14
2019-05-29T11:41:26.168Z,99075.41
2019-05-29T11:43:50.666Z,99060.51
2019-05-29T11:46:18.956Z,99063.66
2019-05-29T11:48:47.324Z,99068.50
2019-05-29T11:51:15.516Z,99063.27
2019-05-29T11:53:43.719Z,99055.25
2019-05-29T11:56:12.039Z,99057.36
2019-05-29T11:58:41.010Z,99060.80
2019-05-29T12:01:09.195Z,99053.78
2019-05-29T12:03:57.844Z,99059.66
2019-05-29T12:06:07.395Z,99059.63
2019-05-29T12:08:35.599Z,99063.31
2019-05-29T12:11:06.938Z,99059.86
2019-05-29T12:13:34.490Z,99058.14
2019-05-29T12:16:02.863Z,99064.41
2019-05-29T12:18:31.059Z,99058.76
2019-05-29T12:21:01.105Z,99061.66
2019-05-29T12:23:29.189Z,99053.27
2019-05-29T12:26:18.823Z,99058.98
2019-05-29T12:28:27.605Z,99056.30
2019-05-29T12:30:56.893Z,99049.31
2019-05-29T12:33:25.182Z,99050.66
2019-05-29T12:35:53.366Z,99053.39
2019-05-29T12:38:21.606Z,99053.84
2019-05-29T12:40:49.772Z,99051.35
2019-05-29T12:43:27.331Z,99059.67
2019-05-29T12:45:48.335Z,99052.69
2019-05-29T12:48:16.903Z,99044.21
2019-05-29T12:50:45.424Z,99050.22
2019-05-29T12:53:29.021Z,99049.30
2019-05-29T12:55:43.505Z,99046.63
2019-05-29T12:58:11.752Z,99048.64
2019-05-29T13:00:39.947Z,99049.23
2019-05-29T13:03:08.616Z,99052.45
2019-05-29T13:05:36.810Z,99049.80
2019-05-29T13:08:05.414Z,99062.63
2019-05-29T13:10:33.552Z,99061.69
2019-05-29T13:13:08.430Z,99058.95
2019-05-29T13:15:31.726Z,99063.08
2019-05-29T13:18:03.983Z,99058.66
2019-05-29T13:20:29.959Z,99054.70
2019-05-29T13:22:59.645Z,99050.91
2019-05-29T13:25:28.165Z,99043.82
2019-05-29T13:27:59.868Z,99042.66
2019-05-29T13:30:28.424Z,99042.66
2019-05-29T13:33:00.066Z,99036.74
2019-05-29T13:35:26.660Z,99048.48
2019-05-29T13:37:54.957Z,99040.34
2019-05-29T13:40:23.152Z,99040.34
2019-05-29T13:42:51.382Z,99043.41
2019-05-29T13:45:21.115Z,99046.03
2019-05-29T13:47:49.881Z,99043.67
2019-05-29T13:50:18.239Z,99041.33
2019-05-29T13:52:46.440Z,99048.19
2019-05-29T13:55:14.634Z,99043.48
2019-05-29T13:57:42.840Z,99051.86
2019-05-29T14:00:33.941Z,99046.38
2019-05-29T14:02:43.730Z,99041.09
2019-05-29T14:05:11.924Z,99046.27
2019-05-29T14:07:40.119Z,99042.23
2019-05-29T14:10:09.616Z,99040.42
2019-05-29T14:12:39.632Z,99039.73
2019-05-29T14:15:09.835Z,99041.12
2019-05-29T14:17:37.604Z,99037.34
2019-05-29T14:20:06.786Z,99035.13
2019-05-29T14:22:35.027Z,99035.31
2019-05-29T14:25:05.311Z,99033.03
2019-05-29T14:27:34.040Z,99039.39
2019-05-29T14:30:03.866Z,99032.42
2019-05-29T14:32:32.940Z,99040.61
2019-05-29T14:35:04.285Z,99039.02
2019-05-29T14:37:31.583Z,99037.67
2019-05-29T14:40:01.604Z,99032.38
2019-05-29T14:42:30.445Z,99034.88
2019-05-29T14:44:59.244Z,99035.36
2019-05-29T14:47:29.014Z,99035.20
2019-05-29T14:49:57.219Z,99034.09
2019-05-29T14:52:25.411Z,99036.61
2019-05-29T14:54:53.618Z,99031.38
2019-05-29T14:57:26.049Z,99033.20
2019-05-29T14:59:51.755Z,99031.38
2019-05-29T15:02:23.902Z,99030.44
2019-05-29T15:04:49.856Z,99036.51
2019-05-29T15:07:22.800Z,99036.15
2019-05-29T15:09:50.010Z,99030.45
2019-05-29T15:12:18.192Z,99034.22
2019-05-29T15:14:46.392Z,99037.34
2019-05-29T15:17:15.494Z,99043.26
2019-05-29T15:19:43.874Z,99033.85
2019-05-29T15:22:13.960Z,99033.85
2019-05-29T15:24:59.651Z,99044.32
2019-05-29T15:27:12.229Z,99044.88
2019-05-29T15:29:40.434Z,99043.21
2019-05-29T15:32:10.367Z,99044.92
2019-05-29T15:34:40.147Z,99047.14
2019-05-29T15:37:12.192Z,99051.61
2019-05-29T15:39:39.838Z,99047.14
2019-05-29T15:42:08.932Z,99045.08
2019-05-29T15:44:37.218Z,99050.52
2019-05-29T15:47:06.768Z,99048.14
2019-05-29T15:49:36.668Z,99049.84
2019-05-29T15:52:05.027Z,99048.58
2019-05-29T15:54:33.243Z,99049.48
2019-05-29T15:57:01.414Z,99048.02
2019-05-29T15:59:29.604Z,99048.34
2019-05-29T16:01:58.582Z,99045.55
2019-05-29T16:04:27.258Z,99045.58
2019-05-29T16:06:56.060Z,99052.23
2019-05-29T16:09:24.253Z,99046.99
2019-05-29T16:11:52.494Z,99047.13
2019-05-29T16:14:20.666Z,99049.07
2019-05-29T16:16:48.863Z,99044.41
2019-05-29T16:19:18.295Z,99050.03
2019-05-29T16:21:46.544Z,99043.83
2019-05-29T16:24:14.758Z,99038.13
2019-05-29T16:26:42.949Z,99038.13
2019-05-29T16:29:12.256Z,99043.89
2019-05-29T16:31:40.722Z,99033.91
2019-05-29T16:34:08.974Z,99038.41
2019-05-29T16:36:37.406Z,99038.42
2019-05-29T16:39:09.016Z,99028.28
2019-05-29T16:41:37.213Z,99035.83
2019-05-29T16:44:05.406Z,99040.17
2019-05-29T16:46:33.615Z,99044.11
2019-05-29T16:49:02.484Z,99040.16
2019-05-29T16:51:30.681Z,99049.95
2019-05-29T16:53:58.868Z,99049.59
2019-05-29T16:56:27.080Z,99049.04
2019-05-29T16:58:55.273Z,99057.11
2019-05-29T17:01:23.957Z,99056.23
2019-05-29T17:03:52.249Z,99066.28
2019-05-29T17:06:20.448Z,99059.52
2019-05-29T17:08:48.647Z,99064.42
2019-05-29T17:11:16.845Z,99057.16
2019-05-29T17:13:45.043Z,99057.55
2019-05-29T17:16:14.364Z,99056.25
2019-05-29T17:18:43.173Z,99050.25
2019-05-29T17:21:11.381Z,99050.21
2019-05-29T17:23:40.353Z,99047.41
2019-05-29T17:26:11.065Z,99051.16
2019-05-29T17:28:38.305Z,99051.25
2019-05-29T17:31:06.920Z,99051.47
2019-05-29T17:33:35.119Z,99047.98
2019-05-29T17:36:03.315Z,99050.09
2019-05-29T17:38:31.518Z,99055.20
2019-05-29T17:40:59.740Z,99058.77
2019-05-29T17:43:28.721Z,99052.53
2019-05-29T17:45:57.283Z,99050.41
2019-05-29T17:48:27.535Z,99044.77
2019-05-29T17:50:55.940Z,99045.30
2019-05-29T17:53:28.848Z,99042.84
2019-05-29T17:55:57.267Z,99037.67
2019-05-29T17:58:26.687Z,99039.52
2019-05-29T18:00:54.932Z,99036.28
2019-05-29T18:03:24.233Z,99035.52
2019-05-29T18:05:52.583Z,99038.16
2019-05-29T18:08:20.826Z,99033.74
2019-05-29T18:10:49.026Z,99031.64
2019-05-29T18:13:17.239Z,99037.62
2019-05-29T18:15:45.443Z,99038.69
2019-05-29T18:18:14.405Z,99040.77
2019-05-29T18:20:42.596Z,99038.22
2019-05-29T18:23:10.803Z,99038.45
2019-05-29T18:25:38.992Z,99043.01
2019-05-29T18:28:07.191Z,99046.17
2019-05-29T18:30:35.386Z,99041.37
2019-05-29T18:33:03.583Z,99044.35
2019-05-29T18:35:31.772Z,99043.82
2019-05-29T18:37:59.978Z,99038.72
2019-05-29T18:40:28.499Z,99046.47
2019-05-29T18:42:56.700Z,99039.84
2019-05-29T18:45:26.258Z,99049.66
2019-05-29T18:47:55.192Z,99045.69
2019-05-29T18:50:23.665Z,99042.69
2019-05-29T18:52:52.674Z,99043.11
2019-05-29T18:55:20.916Z,99048.48
2019-05-29T18:57:49.116Z,99046.34
2019-05-29T19:00:17.849Z,99049.20
2019-05-29T19:02:48.811Z,99047.12
2019-05-29T19:05:17.013Z,99052.41
2019-05-29T19:07:45.586Z,99052.05
2019-05-29T19:10:14.354Z,99052.51
2019-05-29T19:12:42.591Z,99046.90
2019-05-29T19:15:10.791Z,99056.09
2019-05-29T19:17:38.996Z,99061.59
2019-05-29T19:20:07.220Z,99057.83
2019-05-29T19:22:35.639Z,99063.41
2019-05-29T19:25:05.155Z,99064.94
2019-05-29T19:27:41.602Z,99067.61
2019-05-29T19:30:05.420Z,99067.80
2019-05-29T19:32:34.009Z,99073.44
2019-05-29T19:35:02.736Z,99073.96
2019-05-29T19:37:32.107Z,99075.30
2019-05-29T19:40:11.183Z,99077.94
2019-05-29T19:42:39.385Z,99077.16
2019-05-29T19:45:08.318Z,99084.95
2019-05-29T19:47:36.989Z,99083.00
2019-05-29T19:50:11.191Z,99085.11
2019-05-29T19:52:38.581Z,99083.17
2019-05-29T19:55:07.078Z,99103.84
2019-05-29T19:57:53.916Z,99096.44
2019-05-29T20:00:08.117Z,99106.64
2019-05-29T20:02:37.893Z,99104.77
2019-05-29T20:05:06.380Z,99101.37
2019-05-29T20:07:35.251Z,99109.79
2019-05-29T20:10:03.842Z,99106.48
2019-05-29T20:12:33.760Z,99107.69
2019-05-29T20:15:02.012Z,99111.92
2019-05-29T20:17:30.533Z,99110.84
2019-05-29T20:19:58.872Z,99112.69
2019-05-29T20:22:28.467Z,99112.29
2019-05-29T20:24:57.507Z,99109.90
2019-05-29T20:27:26.268Z,99111.00
2019-05-29T20:29:54.616Z,99101.14
2019-05-29T20:32:22.861Z,99105.95
2019-05-29T20:34:54.055Z,99110.41
2019-05-29T20:44:18.985Z,99104.89
2019-05-29T20:46:47.180Z,99110.04
2019-05-29T20:49:15.387Z,99109.89
2019-05-29T20:51:43.583Z,99108.78
2019-05-29T20:54:11.807Z,99110.61
2019-05-29T20:56:40.063Z,99109.19
2019-05-29T20:59:08.355Z,99114.63
2019-05-29T21:01:40.946Z,99112.61
2019-05-29T21:04:06.606Z,99120.66
2019-05-29T21:06:34.798Z,99127.83
2019-05-29T21:09:03.002Z,99122.19
2019-05-29T21:11:31.200Z,99126.00
2019-05-29T21:14:00.187Z,99117.81
2019-05-29T21:16:28.361Z,99123.15
2019-05-29T21:18:56.572Z,99127.95
2019-05-29T21:21:24.765Z,99130.38
2019-05-29T21:23:52.974Z,99128.23
2019-05-29T21:26:21.948Z,99130.13
2019-05-29T21:28:50.922Z,99126.53
2019-05-29T21:31:19.325Z,99135.15
2019-05-29T21:33:49.341Z,99129.20
2019-05-29T21:36:17.692Z,99129.31
2019-05-29T21:38:46.478Z,99134.36
2019-05-29T21:41:15.344Z,99129.05
2019-05-29T21:43:44.692Z,99129.59
2019-05-29T21:46:13.084Z,99134.58
2019-05-29T21:48:41.283Z,99126.41
2019-05-29T21:51:09.544Z,99129.20
2019-05-29T21:53:37.743Z,99128.23
2019-05-29T21:56:05.956Z,99129.47
2019-05-29T21:58:34.449Z,99127.69
2019-05-29T22:01:03.223Z,99130.34
2019-05-29T22:03:31.476Z,99126.11
2019-05-29T22:05:59.650Z,99124.97
2019-05-29T22:08:29.180Z,99125.27
2019-05-29T22:10:57.555Z,99124.63
2019-05-29T22:13:25.752Z,99127.72
2019-05-29T22:15:54.809Z,99133.30
2019-05-29T22:18:23.110Z,99119.73
2019-05-29T22:21:46.172Z,99124.57
2019-05-29T22:24:14.392Z,99124.92
2019-05-29T22:26:42.621Z,99123.97
2019-05-29T22:29:17.834Z,99118.11
2019-05-29T22:31:40.822Z,99119.13
2019-05-29T22:34:09.044Z,99117.05
2019-05-29T22:36:40.282Z,99129.51
2019-05-29T22:39:08.473Z,99126.87
2019-05-29T22:41:36.691Z,99125.23
2019-05-29T22:44:04.895Z,99125.62
2019-05-29T22:46:33.112Z,99119.64
2019-05-29T22:49:02.046Z,99125.41
2019-05-29T22:51:30.347Z,99119.23
2019-05-29T22:53:58.563Z,99120.12
2019-05-29T22:56:26.984Z,99115.83
2019-05-29T22:58:56.022Z,99116.80
2019-05-29T23:01:24.286Z,99119.57
2019-05-29T23:03:52.503Z,99111.19
2019-05-29T23:06:20.802Z,99111.08
2019-05-29T23:08:52.053Z,99104.44
2019-05-29T23:11:20.426Z,99104.39
2019-05-29T23:13:48.619Z,99098.73
2019-05-29T23:16:16.857Z,99099.86
2019-05-29T23:18:45.055Z,99091.03
2019-05-29T23:21:13.277Z,99091.12
2019-05-29T23:23:41.464Z,99089.59
2019-05-29T23:26:09.664Z,99085.09
2019-05-29T23:28:38.632Z,99083.19
2019-05-29T23:31:06.832Z,99089.02
2019-05-29T23:33:35.358Z,99084.75
2019-05-29T23:36:03.560Z,99082.98
2019-05-29T23:38:31.747Z,99088.23
2019-05-29T23:40:59.947Z,99082.77
2019-05-29T23:43:28.156Z,99080.47
2019-05-29T23:45:57.413Z,99081.44
2019-05-29T23:48:25.701Z,99072.95
2019-05-29T23:50:53.913Z,99078.72
2019-05-29T23:53:22.111Z,99073.67
2019-05-29T23:55:50.786Z,99073.77
2019-05-29T23:58:18.984Z,99071.70
